NCAR-RAP Real-Time Weather Data

Output produced by METARs form (21 May 2019  10:30 UTC)
found at http://weather.rap.ucar.edu/surface/
 
RJSI 211000Z 32004KT 280V360 9999 FEW015 SCT030 BKN080 16/11 Q1004
RJSI 210900Z 32004KT 260V010 9999 FEW008 SCT030 BKN080 16/11 Q1003
RJSI 210800Z 35006KT 9999 FEW008 SCT030 BKN060 15/11 Q1003
RJSI 210700Z 27006KT 230V310 9999 FEW005 SCT020 BKN035 15/13 Q1002
RJSI 210600Z 16003KT 8000 -SHRA FEW005 SCT020 BKN035 17/17 Q1001
RJSI 210531Z 17003KT 5000 -SHRA BR FEW005 SCT015 BKN030 17/17 Q1002 RMK 1ST005 3CU015 7CU030 A2960
RJSI 210500Z 16004KT 120V200 3000 SHRA BR FEW005 SCT015 BKN025 17/16 Q1002
RJSI 210429Z 18007KT 3000 SHRA BR FEW005 SCT010 BKN020 17/16 Q1002 RMK 1ST005 3CU010 7CU020 A2961
RJSI 210400Z 24009G19KT 200V280 2000 R20/1900N +SHRA BR FEW002 SCT008 BKN015 17/16 Q1002
RJSI 210341Z 19013KT 3000 +SHRA BR FEW002 BKN008 BKN012 18/18 Q1003 RMK 1ST002 5ST008 7ST012 A2962
RJSI 210300Z 17015KT 3000 SHRA BR FEW002 BKN012 BKN020 18/18 Q1002
RJSI 210227Z 17017KT 4000 SHRA BR FEW004 BKN012 BKN020 18/17 Q1003 RMK 1ST004 5ST012 6CU020 A2962
RJSI 210200Z 17016KT 6000 -SHRA FEW004 SCT012 BKN020 18/17 Q1003
RJSI 210100Z 16020KT 8000 -SHRA FEW004 SCT012 BKN020 18/17 Q1003
RJSI 210000Z 15012KT 6000 -SHRA FEW002 BKN012 BKN020 18/17 Q1003
RJSI 202300Z 16009KT 5000 SHRA BR FEW002 BKN012 BKN020 17/16 Q1004
RJSI 202240Z 15009KT 110V180 6000 SHRA FEW002 BKN012 BKN020 17/16 Q1004 RMK 1ST002 5ST012 7CU020 A2966
RJSI 201000Z 16012KT 9999 -SHRA FEW020 BKN030 BKN040 19/13 Q1012
RJSI 200900Z 16014KT 9999 FEW025 SCT030 BKN040 19/13 Q1012
RJSI 200800Z 15014KT 9999 FEW025 SCT030 BKN040 20/13 Q1012
RJSI 200700Z 16014KT 120V190 9999 FEW025 SCT030 BKN040 20/13 Q1012
RJSI 200600Z 18016KT 150V220 9999 FEW030 BKN040 21/13 Q1012
RJSI 200500Z 18020KT 9999 FEW030 SCT040 BKN050 23/13 Q1012
RJSI 200400Z 16016KT 120V180 9999 FEW030 SCT040 BKN050 22/12 Q1013
RJSI 200300Z 18019KT 9999 FEW030 SCT040 BKN050 22/12 Q1014
RJSI 200200Z 18020KT 150V210 9999 FEW020 SCT030 BKN040 21/12 Q1015
RJSI 200100Z 19018KT 9999 VCSH FEW020 SCT030 BKN040 21/13 Q1016
RJSI 200000Z 16016KT 9999 FEW020 SCT030 BKN040 20/13 Q1016
RJSI 192300Z 16016KT 130V190 9999 FEW020 SCT030 BKN040 19/13 Q1016
RJSI 192240Z 16013G24KT 9999 FEW020 SCT030 BKN040 18/13 Q1017 RMK 1CU020 4CU030 6CU040 A3004
RJSI 191000Z 19014KT 9999 FEW030 BKN050 19/12 Q1021
RJSI 190900Z 17012KT 9999 FEW030 SCT050 20/12 Q1020
RJSI 190800Z 17017KT 9999 FEW030 SCT050 22/12 Q1020
RJSI 190700Z 19019KT 9999 FEW030 SCT050 23/12 Q1020
RJSI 190600Z 20015KT 9999 FEW030 SCT050 24/11 Q1020
RJSI 190500Z 19014KT 160V230 9999 FEW030 SCT050 25/12 Q1020
RJSI 190400Z 19017KT 9999 FEW030 SCT050 24/11 Q1021
RJSI 190300Z 18014KT 140V210 9999 FEW030 SCT040 23/11 Q1021
RJSI 190200Z 18015KT 140V200 9999 FEW030 SCT040 22/11 Q1022
RJSI 190100Z 18013KT 140V220 9999 FEW020 SCT030 BKN050 22/13 Q1023
RJSI 190000Z 19011KT 9999 FEW020 SCT030 BKN045 19/13 Q1023
RJSI 182300Z 18009KT 150V220 9999 FEW020 SCT030 BKN/// 19/13 Q1023
RJSI 182240Z 18003KT 140V230 9999 FEW020 SCT030 BKN/// 18/13 Q1023 RMK 1CU020 3CU030 A3023